Time;durP1;ratioP1;P1;durP2;ratioP2;P2;SDS_P1;SDS_P2;PMS_P1;PMS_P2;Temp;Humidity;BMP_temperature;BMP_pressure;BME280_temperature;BME280_humidity;BME280_pressure;Samples;Min_cycle;Max_cycle;Signal;HPM_P1;HPM_P2
2022/05/28 00:01:23;;;;;;;10.30;3.22;;;;;;;;;;10376639;28;20073;-58
2022/05/28 00:06:24;;;;;;;13.38;3.90;;;;;;;;;;10372849;28;20382;-57
2022/05/28 00:11:38;;;;;;;20.60;3.42;;;;;;;;;;10367652;28;20045;-58
2022/05/28 00:16:41;;;;;;;17.45;3.70;;;;;;;;;;10366941;28;20121;-58
2022/05/28 00:21:42;;;;;;;12.98;3.40;;;;;;;;;;10376693;28;20030;-61
2022/05/28 00:26:43;;;;;;;12.93;3.22;;;;;;;;;;10374276;28;20037;-59
2022/05/28 00:31:44;;;;;;;8.73;3.85;;;;;;;;;;10394235;28;20096;-59
2022/05/28 00:36:44;;;;;;;10.75;4.15;;;;;;;;;;10366703;28;20092;-60
2022/05/28 00:41:45;;;;;;;11.15;3.50;;;;;;;;;;10367023;28;20501;-59
2022/05/28 00:46:46;;;;;;;10.52;3.40;;;;;;;;;;10370670;28;20030;-59
2022/05/28 00:51:50;;;;;;;8.15;3.00;;;;;;;;;;10375042;28;20500;-59
2022/05/28 00:56:51;;;;;;;6.70;3.47;;;;;;;;;;10357908;28;20040;-59
2022/05/28 01:01:56;;;;;;;16.75;3.80;;;;;;;;;;10373596;28;20080;-59
2022/05/28 01:07:41;;;;;;;12.18;3.40;;;;;;;;;;10348846;28;20026;-59
2022/05/28 01:12:57;;;;;;;9.75;2.70;;;;;;;;;;10373304;28;20509;-59
2022/05/28 01:18:18;;;;;;;10.35;3.13;;;;;;;;;;10371528;28;20386;-60
2022/05/28 01:23:34;;;;;;;10.98;2.90;;;;;;;;;;10355003;28;20161;-58
2022/05/28 01:28:44;;;;;;;6.18;2.78;;;;;;;;;;10372220;28;20030;-58
2022/05/28 01:33:46;;;;;;;8.00;2.88;;;;;;;;;;10376184;28;20502;-59
2022/05/28 01:38:48;;;;;;;12.60;3.22;;;;;;;;;;10354072;28;20387;-58
2022/05/28 01:43:51;;;;;;;13.70;3.28;;;;;;;;;;10354848;28;20375;-58
2022/05/28 01:48:55;;;;;;;14.82;2.83;;;;;;;;;;10371822;28;20029;-58
2022/05/28 01:54:11;;;;;;;7.07;3.10;;;;;;;;;;10371577;28;20085;-58
2022/05/28 01:59:16;;;;;;;9.70;3.30;;;;;;;;;;10355413;28;20034;-58
2022/05/28 02:04:17;;;;;;;7.03;3.28;;;;;;;;;;10353371;28;20397;-59
2022/05/28 02:09:33;;;;;;;14.75;2.97;;;;;;;;;;10357598;28;20028;-58
2022/05/28 02:14:46;;;;;;;12.18;3.30;;;;;;;;;;10347373;28;20033;-58
2022/05/28 02:20:16;;;;;;;9.68;3.35;;;;;;;;;;10353974;28;20398;-59
2022/05/28 02:25:25;;;;;;;14.32;3.72;;;;;;;;;;10355776;28;20056;-59
2022/05/28 02:30:26;;;;;;;7.78;3.08;;;;;;;;;;10364912;28;20617;-60
2022/05/28 02:35:28;;;;;;;6.88;3.25;;;;;;;;;;10369529;28;20309;-58
2022/05/28 02:40:28;;;;;;;6.35;3.10;;;;;;;;;;10371096;28;20038;-59
2022/05/28 02:45:29;;;;;;;4.22;2.63;;;;;;;;;;10368568;28;20490;-59
2022/05/28 02:50:30;;;;;;;7.88;3.10;;;;;;;;;;10371489;28;20405;-59
2022/05/28 02:55:30;;;;;;;6.88;2.95;;;;;;;;;;10361965;28;20204;-58
2022/05/28 03:00:31;;;;;;;7.38;3.38;;;;;;;;;;10364100;28;20091;-58
2022/05/28 03:05:31;;;;;;;8.98;3.08;;;;;;;;;;10343545;28;20038;-58
2022/05/28 03:10:33;;;;;;;4.85;2.78;;;;;;;;;;10380633;28;20458;-58
2022/05/28 03:15:34;;;;;;;8.15;2.80;;;;;;;;;;10362825;28;20512;-58
2022/05/28 03:20:34;;;;;;;5.80;2.92;;;;;;;;;;10368448;28;20026;-58
2022/05/28 03:25:35;;;;;;;7.53;2.97;;;;;;;;;;10366941;28;20034;-58
2022/05/28 03:30:35;;;;;;;4.03;2.80;;;;;;;;;;10362188;28;20169;-58
2022/05/28 03:35:37;;;;;;;5.38;3.05;;;;;;;;;;10370043;28;20045;-58
2022/05/28 03:40:38;;;;;;;7.32;2.70;;;;;;;;;;10368706;28;20112;-58
2022/05/28 03:45:38;;;;;;;5.03;2.70;;;;;;;;;;10365541;28;20029;-58
2022/05/28 03:50:39;;;;;;;12.18;3.00;;;;;;;;;;10369674;28;20038;-60
2022/05/28 03:55:40;;;;;;;11.85;3.03;;;;;;;;;;10364253;28;20033;-59
2022/05/28 04:00:41;;;;;;;9.27;3.35;;;;;;;;;;10369572;28;20468;-58
2022/05/28 04:05:41;;;;;;;7.32;2.53;;;;;;;;;;10359804;28;20030;-58
2022/05/28 04:10:42;;;;;;;6.18;2.67;;;;;;;;;;10368248;28;20525;-60
2022/05/28 04:15:43;;;;;;;8.50;2.97;;;;;;;;;;10358183;28;20030;-58
2022/05/28 04:20:44;;;;;;;7.50;2.85;;;;;;;;;;10370621;28;20041;-59
2022/05/28 04:25:44;;;;;;;10.10;2.75;;;;;;;;;;10372649;28;20026;-58
2022/05/28 04:30:45;;;;;;;6.88;3.15;;;;;;;;;;10381148;28;20035;-58
2022/05/28 04:35:45;;;;;;;10.23;2.78;;;;;;;;;;10369371;28;20038;-60
2022/05/28 04:40:46;;;;;;;4.20;2.63;;;;;;;;;;10368421;28;20042;-59
2022/05/28 04:45:47;;;;;;;6.13;2.83;;;;;;;;;;10374420;28;20038;-58
2022/05/28 04:50:47;;;;;;;5.43;2.58;;;;;;;;;;10372336;28;20096;-58
2022/05/28 04:55:48;;;;;;;15.55;3.05;;;;;;;;;;10373615;28;20033;-58
2022/05/28 05:00:49;;;;;;;6.75;3.10;;;;;;;;;;10370162;28;20164;-57
2022/05/28 05:05:49;;;;;;;5.35;2.88;;;;;;;;;;10345875;28;20030;-58
2022/05/28 05:10:50;;;;;;;3.03;2.55;;;;;;;;;;10338337;28;20088;-58
2022/05/28 05:15:50;;;;;;;2.92;2.05;;;;;;;;;;10347794;28;20038;-57
2022/05/28 05:20:51;;;;;;;5.45;2.63;;;;;;;;;;10351930;28;20033;-58
2022/05/28 05:25:52;;;;;;;4.85;2.53;;;;;;;;;;10379207;28;20478;-57
2022/05/28 05:30:52;;;;;;;5.80;2.45;;;;;;;;;;10378024;28;20045;-58
2022/05/28 05:35:53;;;;;;;4.40;2.40;;;;;;;;;;10363546;28;20045;-58
2022/05/28 05:40:53;;;;;;;6.65;2.38;;;;;;;;;;10370723;28;20034;-57
2022/05/28 05:46:00;;;;;;;3.42;2.13;;;;;;;;;;10370803;28;20021;-57
2022/05/28 05:51:10;;;;;;;8.32;2.30;;;;;;;;;;10367478;28;20461;-57
2022/05/28 05:56:11;;;;;;;5.55;2.28;;;;;;;;;;10370426;28;20117;-57
2022/05/28 06:01:12;;;;;;;4.25;2.50;;;;;;;;;;10370000;28;20038;-58
2022/05/28 06:06:15;;;;;;;18.48;2.47;;;;;;;;;;10351103;28;20029;-57
2022/05/28 06:11:16;;;;;;;11.48;2.70;;;;;;;;;;10352843;28;20073;-57
2022/05/28 06:16:17;;;;;;;9.00;2.50;;;;;;;;;;10363193;28;20061;-58
2022/05/28 06:21:18;;;;;;;8.63;3.20;;;;;;;;;;10367927;28;20034;-57
2022/05/28 06:26:19;;;;;;;7.15;2.70;;;;;;;;;;10367875;28;20370;-59
2022/05/28 06:31:20;;;;;;;6.03;2.50;;;;;;;;;;10365757;28;20037;-58
2022/05/28 06:36:20;;;;;;;12.07;2.78;;;;;;;;;;10369126;28;20052;-58
2022/05/28 06:41:21;;;;;;;17.15;3.70;;;;;;;;;;10368185;28;20041;-58
2022/05/28 06:46:21;;;;;;;14.00;4.20;;;;;;;;;;10361048;28;20173;-57
2022/05/28 06:51:22;;;;;;;15.15;5.10;;;;;;;;;;10353241;28;20600;-66
2022/05/28 06:56:22;;;;;;;15.88;5.47;;;;;;;;;;10365566;28;20037;-66
2022/05/28 07:01:23;;;;;;;18.45;6.53;;;;;;;;;;10366293;28;20030;-66
2022/05/28 07:06:24;;;;;;;23.98;6.25;;;;;;;;;;10366670;28;20496;-63
2022/05/28 07:11:25;;;;;;;20.15;6.25;;;;;;;;;;10364827;28;20041;-65
2022/05/28 07:16:25;;;;;;;22.77;7.72;;;;;;;;;;10363911;28;20398;-66
2022/05/28 07:21:26;;;;;;;15.15;6.78;;;;;;;;;;10363951;28;20053;-65
2022/05/28 07:26:27;;;;;;;19.25;7.65;;;;;;;;;;10356958;28;20054;-65
2022/05/28 07:31:27;;;;;;;15.98;6.57;;;;;;;;;;10367499;28;20033;-67
2022/05/28 07:36:28;;;;;;;17.88;6.32;;;;;;;;;;10356021;28;20050;-66
2022/05/28 07:41:28;;;;;;;15.55;6.75;;;;;;;;;;10361416;28;20037;-65
2022/05/28 07:46:31;;;;;;;21.58;6.32;;;;;;;;;;10356756;28;20490;-65
2022/05/28 07:51:32;;;;;;;23.42;6.80;;;;;;;;;;10365711;28;20038;-63
2022/05/28 07:56:33;;;;;;;19.27;5.53;;;;;;;;;;10365086;28;20325;-66
2022/05/28 08:01:36;;;;;;;28.73;6.45;;;;;;;;;;10367036;28;20049;-67
2022/05/28 08:06:38;;;;;;;27.58;5.80;;;;;;;;;;10352778;28;20018;-63
2022/05/28 08:11:39;;;;;;;15.25;5.63;;;;;;;;;;10364144;28;20092;-67
2022/05/28 08:16:40;;;;;;;22.27;5.40;;;;;;;;;;10353205;28;20185;-66
2022/05/28 08:27:00;;;;;;;15.75;5.25;;;;;;;;;;10352573;28;20026;-66
2022/05/28 08:32:00;;;;;;;15.57;4.80;;;;;;;;;;10350772;28;20417;-66
2022/05/28 08:37:01;;;;;;;14.48;4.57;;;;;;;;;;10354574;28;20151;-63
2022/05/28 08:42:02;;;;;;;13.52;5.22;;;;;;;;;;10367954;28;20512;-66
2022/05/28 08:47:17;;;;;;;13.05;4.85;;;;;;;;;;10362852;28;20030;-66
2022/05/28 08:52:45;;;;;;;22.27;4.95;;;;;;;;;;10340933;28;20101;-65
2022/05/28 08:58:00;;;;;;;18.07;4.90;;;;;;;;;;10376884;28;20026;-64
2022/05/28 09:03:23;;;;;;;52.40;6.78;;;;;;;;;;10361463;28;20052;-56
2022/05/28 09:08:38;;;;;;;33.60;5.25;;;;;;;;;;10332979;28;20037;-58
2022/05/28 09:13:49;;;;;;;20.60;5.50;;;;;;;;;;10357084;28;20518;-58
2022/05/28 09:18:52;;;;;;;22.95;4.97;;;;;;;;;;10365503;28;20489;-57
2022/05/28 09:24:01;;;;;;;25.48;4.68;;;;;;;;;;10359777;28;20077;-58
2022/05/28 09:29:57;;;;;;;22.40;5.03;;;;;;;;;;10366833;28;20044;-58
2022/05/28 09:35:28;;;;;;;13.98;4.43;;;;;;;;;;10344167;28;20402;-58
2022/05/28 09:40:46;;;;;;;16.02;3.80;;;;;;;;;;10369538;28;20379;-57
2022/05/28 09:46:02;;;;;;;13.02;4.10;;;;;;;;;;10360953;28;20547;-58
2022/05/28 09:51:03;;;;;;;19.05;4.15;;;;;;;;;;10374821;28;20022;-58
2022/05/28 09:56:09;;;;;;;19.67;3.67;;;;;;;;;;10353183;28;20109;-57
2022/05/28 10:01:25;;;;;;;18.83;3.47;;;;;;;;;;10350554;28;20069;-58
2022/05/28 10:06:27;;;;;;;13.10;3.60;;;;;;;;;;10337997;28;20034;-58
2022/05/28 10:11:28;;;;;;;21.17;3.75;;;;;;;;;;10355089;28;20040;-58
2022/05/28 10:16:41;;;;;;;13.13;3.33;;;;;;;;;;10346776;28;20022;-57
2022/05/28 10:21:49;;;;;;;8.65;3.33;;;;;;;;;;10344833;28;20489;-57
2022/05/28 10:26:57;;;;;;;16.08;3.50;;;;;;;;;;10346781;28;20034;-57
2022/05/28 10:32:00;;;;;;;5.03;2.63;;;;;;;;;;10343770;28;20053;-58
2022/05/28 10:37:15;;;;;;;6.80;2.90;;;;;;;;;;10353983;28;20042;-58
2022/05/28 10:42:16;;;;;;;20.50;3.47;;;;;;;;;;10357974;28;20551;-59
2022/05/28 10:47:38;;;;;;;12.95;3.30;;;;;;;;;;10365748;28;20034;-59
2022/05/28 10:53:12;;;;;;;15.00;2.80;;;;;;;;;;10355069;28;20053;-58
2022/05/28 10:58:49;;;;;;;13.73;2.50;;;;;;;;;;10355110;28;20104;-57
2022/05/28 11:04:09;;;;;;;6.63;2.13;;;;;;;;;;10373134;28;20036;-59
2022/05/28 11:09:31;;;;;;;12.93;2.17;;;;;;;;;;10358930;28;20033;-60
2022/05/28 11:15:02;;;;;;;12.27;2.25;;;;;;;;;;10353649;28;20042;-58
2022/05/28 11:20:24;;;;;;;8.57;2.10;;;;;;;;;;10355815;28;20042;-58
2022/05/28 11:26:23;;;;;;;15.20;2.90;;;;;;;;;;10354358;28;20021;-61
2022/05/28 11:31:58;;;;;;;12.13;2.25;;;;;;;;;;10356412;28;20498;-57
2022/05/28 11:37:44;;;;;;;13.23;2.30;;;;;;;;;;10343898;28;20045;-58
2022/05/28 11:42:58;;;;;;;13.85;2.17;;;;;;;;;;10351936;28;20021;-57
2022/05/28 11:48:08;;;;;;;13.20;2.03;;;;;;;;;;10350790;28;20030;-57
2022/05/28 11:53:21;;;;;;;8.77;2.05;;;;;;;;;;10334576;28;20092;-57
2022/05/28 11:58:32;;;;;;;3.50;1.80;;;;;;;;;;10342578;28;20457;-60
2022/05/28 12:03:33;;;;;;;8.75;1.98;;;;;;;;;;10339042;28;20113;-59
2022/05/28 12:08:45;;;;;;;3.78;1.67;;;;;;;;;;10324331;28;20032;-57
2022/05/28 12:13:59;;;;;;;8.82;1.45;;;;;;;;;;10362132;28;20038;-57
2022/05/28 12:19:06;;;;;;;14.57;2.33;;;;;;;;;;10343963;28;20042;-60
2022/05/28 12:24:18;;;;;;;8.20;2.00;;;;;;;;;;10357413;28;20041;-61
2022/05/28 12:29:34;;;;;;;5.75;1.83;;;;;;;;;;10353089;28;20061;-58
2022/05/28 12:34:37;;;;;;;10.70;1.45;;;;;;;;;;10372631;28;20026;-57
2022/05/28 12:39:49;;;;;;;10.50;1.90;;;;;;;;;;10365705;28;20029;-58
2022/05/28 12:44:51;;;;;;;6.40;1.85;;;;;;;;;;10338689;28;20501;-57
2022/05/28 12:50:16;;;;;;;5.53;2.00;;;;;;;;;;10366968;28;20032;-56
2022/05/28 12:55:39;;;;;;;8.98;1.67;;;;;;;;;;10369790;28;20048;-57
2022/05/28 13:00:58;;;;;;;11.07;1.70;;;;;;;;;;10373534;28;20026;-56
2022/05/28 13:06:21;;;;;;;16.33;2.00;;;;;;;;;;10353461;28;20042;-60
2022/05/28 13:11:27;;;;;;;7.28;1.83;;;;;;;;;;10340810;28;21106;-58
2022/05/28 13:17:08;;;;;;;5.85;1.95;;;;;;;;;;10339598;28;20095;-57
2022/05/28 13:22:40;;;;;;;8.82;1.83;;;;;;;;;;10363453;28;20663;-58
2022/05/28 13:28:20;;;;;;;9.75;1.90;;;;;;;;;;10359075;28;20025;-58
2022/05/28 13:33:22;;;;;;;2.75;1.45;;;;;;;;;;10367729;28;20060;-58
2022/05/28 13:38:28;;;;;;;5.00;1.63;;;;;;;;;;10331530;28;20380;-58
2022/05/28 13:43:46;;;;;;;15.23;1.60;;;;;;;;;;10330058;28;20026;-57
2022/05/28 13:48:57;;;;;;;10.90;1.83;;;;;;;;;;10328939;28;20037;-58
2022/05/28 13:54:03;;;;;;;5.47;1.27;;;;;;;;;;10329149;28;20043;-57
2022/05/28 13:59:04;;;;;;;14.57;1.98;;;;;;;;;;10325288;28;20038;-58
2022/05/28 14:04:25;;;;;;;10.55;1.80;;;;;;;;;;10327429;28;20034;-58
2022/05/28 14:09:40;;;;;;;13.70;1.90;;;;;;;;;;10339943;28;20058;-57
2022/05/28 14:14:44;;;;;;;13.90;1.35;;;;;;;;;;10316528;28;20457;-57
2022/05/28 14:19:52;;;;;;;3.65;1.40;;;;;;;;;;10324718;28;20520;-57
2022/05/28 14:24:55;;;;;;;10.60;1.75;;;;;;;;;;10361372;28;20045;-57
2022/05/28 14:29:57;;;;;;;11.13;1.67;;;;;;;;;;10349592;28;20031;-57
2022/05/28 14:35:06;;;;;;;14.88;2.30;;;;;;;;;;10331164;28;20086;-58
2022/05/28 14:40:20;;;;;;;17.85;2.83;;;;;;;;;;10359944;28;20124;-57
2022/05/28 14:45:31;;;;;;;14.43;2.70;;;;;;;;;;10372695;28;20099;-58
2022/05/28 14:50:42;;;;;;;5.45;1.83;;;;;;;;;;10355706;28;20061;-57
2022/05/28 14:55:42;;;;;;;12.35;2.58;;;;;;;;;;10370952;28;20444;-57
2022/05/28 15:00:43;;;;;;;11.80;1.83;;;;;;;;;;10354913;28;20045;-57
2022/05/28 15:05:45;;;;;;;7.30;1.70;;;;;;;;;;10345096;28;20038;-58
2022/05/28 15:10:49;;;;;;;14.95;2.10;;;;;;;;;;10359345;28;20454;-58
2022/05/28 15:15:55;;;;;;;6.55;1.58;;;;;;;;;;10357529;28;20105;-58
2022/05/28 15:20:58;;;;;;;6.97;1.88;;;;;;;;;;10369284;28;20045;-58
2022/05/28 15:25:59;;;;;;;12.88;2.05;;;;;;;;;;10368854;28;20018;-58
2022/05/28 15:31:00;;;;;;;10.13;1.88;;;;;;;;;;10351708;28;20030;-57
2022/05/28 15:41:20;;;;;;;5.68;1.70;;;;;;;;;;10331001;28;20425;-57
2022/05/28 15:46:20;;;;;;;5.78;1.38;;;;;;;;;;10353632;28;20041;-58
2022/05/28 15:51:21;;;;;;;3.50;1.55;;;;;;;;;;10366227;28;20410;-57
2022/05/28 15:56:22;;;;;;;5.50;1.48;;;;;;;;;;10355358;28;20085;-57
2022/05/28 16:01:25;;;;;;;13.43;1.77;;;;;;;;;;10367191;28;20041;-57
2022/05/28 16:06:26;;;;;;;8.90;1.60;;;;;;;;;;10360941;28;20437;-59
2022/05/28 16:11:31;;;;;;;6.57;1.60;;;;;;;;;;10355220;28;20034;-58
2022/05/28 16:16:32;;;;;;;7.65;1.40;;;;;;;;;;10351072;28;20032;-59
2022/05/28 16:21:34;;;;;;;2.45;1.33;;;;;;;;;;10369623;28;20121;-56
2022/05/28 16:26:36;;;;;;;12.93;1.58;;;;;;;;;;10348228;28;20106;-56
2022/05/28 16:31:37;;;;;;;8.10;1.48;;;;;;;;;;10359181;28;20041;-56
2022/05/28 16:36:38;;;;;;;9.80;1.17;;;;;;;;;;10378933;28;20038;-54
2022/05/28 16:41:39;;;;;;;8.13;1.40;;;;;;;;;;10353049;28;20153;-55
2022/05/28 16:46:39;;;;;;;2.95;1.40;;;;;;;;;;10380365;28;20482;-56
2022/05/28 16:51:40;;;;;;;8.75;1.20;;;;;;;;;;10346439;28;20022;-57
2022/05/28 16:56:45;;;;;;;7.20;1.38;;;;;;;;;;10368250;28;20037;-59
2022/05/28 17:01:45;;;;;;;8.50;1.73;;;;;;;;;;10335552;28;20030;-56
2022/05/28 17:06:46;;;;;;;6.15;2.15;;;;;;;;;;10363712;28;20034;-57
2022/05/28 17:11:50;;;;;;;4.78;1.20;;;;;;;;;;10370724;28;20033;-57
2022/05/28 17:16:52;;;;;;;10.23;1.50;;;;;;;;;;10353933;28;20041;-56
2022/05/28 17:21:52;;;;;;;9.02;1.50;;;;;;;;;;10371889;28;20039;-57
2022/05/28 17:26:59;;;;;;;6.88;1.27;;;;;;;;;;10357903;28;20022;-56
2022/05/28 17:32:07;;;;;;;4.90;1.38;;;;;;;;;;10374735;28;20037;-55
2022/05/28 17:37:28;;;;;;;2.60;1.10;;;;;;;;;;10372690;28;20042;-56
2022/05/28 17:42:32;;;;;;;5.15;1.58;;;;;;;;;;10368945;28;20398;-56
2022/05/28 17:47:34;;;;;;;5.53;1.30;;;;;;;;;;10352666;28;20034;-56
2022/05/28 17:52:36;;;;;;;3.70;1.00;;;;;;;;;;10339012;28;20088;-56
2022/05/28 17:57:37;;;;;;;4.25;1.05;;;;;;;;;;10370795;28;20038;-56
2022/05/28 18:02:38;;;;;;;3.58;1.20;;;;;;;;;;10372397;28;20034;-54
2022/05/28 18:07:39;;;;;;;1.55;0.90;;;;;;;;;;10372303;28;20053;-55
2022/05/28 18:12:40;;;;;;;5.90;1.30;;;;;;;;;;10362886;28;20041;-55
2022/05/28 18:17:49;;;;;;;3.67;1.00;;;;;;;;;;10341961;28;20033;-57
2022/05/28 18:22:50;;;;;;;1.65;1.30;;;;;;;;;;10367995;28;20293;-56
2022/05/28 18:27:51;;;;;;;4.65;1.35;;;;;;;;;;10370367;28;20163;-55
2022/05/28 18:32:54;;;;;;;6.70;1.20;;;;;;;;;;10355099;28;20128;-57
2022/05/28 18:37:59;;;;;;;1.77;0.90;;;;;;;;;;10368287;28;20085;-57
2022/05/28 18:43:01;;;;;;;3.83;1.30;;;;;;;;;;10370657;28;20433;-55
2022/05/28 18:48:05;;;;;;;4.95;1.00;;;;;;;;;;10367092;28;20046;-57
2022/05/28 18:58:26;;;;;;;3.92;1.35;;;;;;;;;;10351566;28;20030;-57
2022/05/28 19:03:32;;;;;;;2.33;1.20;;;;;;;;;;10365244;28;20022;-57
2022/05/28 19:08:37;;;;;;;5.60;1.20;;;;;;;;;;10333602;28;20500;-57
2022/05/28 19:13:43;;;;;;;3.05;1.20;;;;;;;;;;10352062;28;20040;-56
2022/05/28 19:18:44;;;;;;;2.83;1.17;;;;;;;;;;10343358;28;20018;-56
2022/05/28 19:23:46;;;;;;;7.43;0.98;;;;;;;;;;10377884;28;20030;-57
2022/05/28 19:28:47;;;;;;;2.03;1.00;;;;;;;;;;10331555;28;20148;-57
2022/05/28 19:33:49;;;;;;;2.58;1.10;;;;;;;;;;10373391;28;20081;-55
2022/05/28 19:38:49;;;;;;;1.75;1.10;;;;;;;;;;10351310;28;20080;-56
2022/05/28 19:43:53;;;;;;;2.60;1.17;;;;;;;;;;10342201;28;20122;-56
2022/05/28 19:48:54;;;;;;;3.00;1.20;;;;;;;;;;10341669;28;20388;-55
2022/05/28 19:53:55;;;;;;;3.13;1.05;;;;;;;;;;10359351;28;20136;-54
2022/05/28 19:58:55;;;;;;;1.92;0.80;;;;;;;;;;10371958;28;20026;-57
2022/05/28 20:03:56;;;;;;;2.28;1.48;;;;;;;;;;10352341;28;20033;-54
2022/05/28 20:08:57;;;;;;;0.80;0.80;;;;;;;;;;10352337;28;20081;-56
2022/05/28 20:13:57;;;;;;;1.98;1.08;;;;;;;;;;10355071;28;20030;-55
2022/05/28 20:18:58;;;;;;;3.47;1.38;;;;;;;;;;10366569;28;20026;-56
2022/05/28 20:24:00;;;;;;;2.20;0.90;;;;;;;;;;10367439;28;20026;-55
2022/05/28 20:29:00;;;;;;;2.60;1.20;;;;;;;;;;10336897;28;20034;-57
2022/05/28 20:34:02;;;;;;;5.85;1.08;;;;;;;;;;10367522;28;20030;-56
2022/05/28 20:39:03;;;;;;;2.42;0.90;;;;;;;;;;10366610;28;20046;-55
2022/05/28 20:44:04;;;;;;;2.50;1.17;;;;;;;;;;10360141;28;20018;-57
2022/05/28 20:49:05;;;;;;;2.03;1.30;;;;;;;;;;10375812;28;20030;-55
2022/05/28 20:54:08;;;;;;;2.50;1.08;;;;;;;;;;10369960;28;20021;-58
2022/05/28 20:59:10;;;;;;;6.25;1.30;;;;;;;;;;10367913;28;20301;-57
2022/05/28 21:04:12;;;;;;;2.33;1.02;;;;;;;;;;10357899;28;20038;-56
2022/05/28 21:09:13;;;;;;;1.55;0.93;;;;;;;;;;10339215;28;20034;-57
2022/05/28 21:14:14;;;;;;;1.92;1.00;;;;;;;;;;10372330;28;20038;-57
2022/05/28 21:19:24;;;;;;;1.88;0.90;;;;;;;;;;10381727;28;20406;-55
2022/05/28 21:24:24;;;;;;;1.08;0.90;;;;;;;;;;10358688;28;20042;-56
2022/05/28 21:34:44;;;;;;;2.90;1.30;;;;;;;;;;10346825;28;20057;-57
2022/05/28 21:39:45;;;;;;;1.27;1.08;;;;;;;;;;10350923;28;20274;-57
2022/05/28 21:44:45;;;;;;;1.77;0.98;;;;;;;;;;10358954;28;20268;-57
2022/05/28 21:49:48;;;;;;;1.30;1.00;;;;;;;;;;10368956;28;20470;-56
2022/05/28 21:54:54;;;;;;;1.70;0.93;;;;;;;;;;10326773;28;20080;-57
2022/05/28 21:59:55;;;;;;;1.38;0.95;;;;;;;;;;10385434;28;20405;-56
2022/05/28 22:04:56;;;;;;;4.15;0.80;;;;;;;;;;10337896;28;20026;-56
2022/05/28 22:09:57;;;;;;;2.38;0.98;;;;;;;;;;10342765;28;20026;-59
2022/05/28 22:14:57;;;;;;;1.35;0.90;;;;;;;;;;10360217;28;20033;-57
2022/05/28 22:19:58;;;;;;;1.05;0.85;;;;;;;;;;10358500;28;20018;-52
2022/05/28 22:24:58;;;;;;;1.48;0.82;;;;;;;;;;10358320;28;20041;-55
2022/05/28 22:29:59;;;;;;;1.30;0.90;;;;;;;;;;10372611;28;20029;-54
2022/05/28 22:35:01;;;;;;;1.67;0.80;;;;;;;;;;10342516;28;20053;-57
2022/05/28 22:40:05;;;;;;;4.50;0.90;;;;;;;;;;10337706;28;20052;-51
2022/05/28 22:45:09;;;;;;;2.65;1.10;;;;;;;;;;10354171;28;20122;-57
2022/05/28 22:50:37;;;;;;;4.88;1.10;;;;;;;;;;10369708;28;20132;-57
2022/05/28 22:55:39;;;;;;;5.28;1.63;;;;;;;;;;10373305;28;20083;-58
2022/05/28 23:00:45;;;;;;;8.75;1.88;;;;;;;;;;10370150;28;20040;-57
2022/05/28 23:05:49;;;;;;;4.80;1.45;;;;;;;;;;10352940;28;20030;-58
2022/05/28 23:10:52;;;;;;;4.82;1.50;;;;;;;;;;10366760;28;20025;-58
2022/05/28 23:15:53;;;;;;;5.80;1.50;;;;;;;;;;10369039;28;20037;-57
2022/05/28 23:20:58;;;;;;;5.03;1.50;;;;;;;;;;10367862;28;20517;-58
2022/05/28 23:25:59;;;;;;;8.18;1.60;;;;;;;;;;10368295;28;20148;-58
2022/05/28 23:31:06;;;;;;;2.47;1.25;;;;;;;;;;10357322;28;20106;-59
2022/05/28 23:36:10;;;;;;;3.53;1.10;;;;;;;;;;10365630;28;20042;-58
2022/05/28 23:41:11;;;;;;;1.95;1.20;;;;;;;;;;10351115;28;20036;-59
2022/05/28 23:46:24;;;;;;;5.13;1.20;;;;;;;;;;10363056;28;20026;-59
2022/05/28 23:51:26;;;;;;;2.90;1.13;;;;;;;;;;10347732;28;20029;-57
2022/05/28 23:56:27;;;;;;;5.45;1.20;;;;;;;;;;10366987;28;20029;-57
